createdAt,value
2023-03-06T00:01:23.716Z,14.23
2023-03-06T00:04:26.143Z,16.95
2023-03-06T00:07:28.450Z,16.13
2023-03-06T00:10:31.330Z,17.33
2023-03-06T00:13:35.168Z,12.87
2023-03-06T00:16:37.585Z,15.30
2023-03-06T00:19:39.936Z,14.95
2023-03-06T00:22:42.510Z,18.85
2023-03-06T00:25:46.101Z,12.63
2023-03-06T00:28:48.316Z,13.57
2023-03-06T00:31:52.401Z,14.10
2023-03-06T00:34:55.503Z,14.55
2023-03-06T00:37:59.947Z,15.00
2023-03-06T00:41:11.781Z,12.47
2023-03-06T00:44:14.067Z,11.73
2023-03-06T00:47:17.389Z,12.57
2023-03-06T00:50:19.918Z,10.35
2023-03-06T00:53:22.289Z,8.98
2023-03-06T00:56:25.291Z,9.97
2023-03-06T00:59:30.327Z,10.47
2023-03-06T01:02:32.952Z,11.00
2023-03-06T01:05:36.420Z,9.60
2023-03-06T01:08:38.765Z,12.15
2023-03-06T01:11:41.167Z,8.63
2023-03-06T01:14:43.514Z,11.70
2023-03-06T01:17:45.946Z,12.05
2023-03-06T01:20:48.756Z,9.15
2023-03-06T01:23:51.526Z,9.98
2023-03-06T01:26:53.832Z,10.10
2023-03-06T01:29:56.268Z,10.67
2023-03-06T01:32:59.364Z,13.00
2023-03-06T01:36:05.466Z,8.95
2023-03-06T01:39:07.807Z,12.25
2023-03-06T01:42:10.144Z,12.87
2023-03-06T01:45:15.611Z,8.80
2023-03-06T01:48:22.159Z,12.27
2023-03-06T01:51:27.601Z,8.50
2023-03-06T01:54:36.376Z,10.93
2023-03-06T01:57:42.380Z,12.40
2023-03-06T02:00:44.814Z,9.07
2023-03-06T02:03:49.944Z,10.45
2023-03-06T02:06:52.454Z,8.52
2023-03-06T02:09:54.736Z,10.00
2023-03-06T02:12:58.895Z,9.13
2023-03-06T02:16:01.681Z,10.33
2023-03-06T02:19:05.159Z,11.13
2023-03-06T02:22:07.586Z,11.77
2023-03-06T02:25:32.106Z,7.97
2023-03-06T02:28:35.046Z,11.77
2023-03-06T02:31:37.446Z,11.20
2023-03-06T02:34:39.763Z,10.05
2023-03-06T02:37:42.080Z,8.48
2023-03-06T02:40:48.080Z,8.02
2023-03-06T02:43:50.742Z,9.33
2023-03-06T02:46:53.083Z,6.57
2023-03-06T02:49:55.646Z,10.68
2023-03-06T02:52:58.281Z,8.90
2023-03-06T02:56:00.830Z,9.45
2023-03-06T02:59:03.380Z,9.73
2023-03-06T03:02:05.969Z,8.40
2023-03-06T03:05:09.820Z,9.38
2023-03-06T03:08:16.769Z,9.88
2023-03-06T03:11:19.179Z,10.07
2023-03-06T03:14:24.652Z,11.43
2023-03-06T03:17:27.211Z,9.40
2023-03-06T03:20:29.576Z,9.43
2023-03-06T03:23:31.911Z,7.63
2023-03-06T03:26:34.234Z,14.43
2023-03-06T03:29:45.298Z,9.77
2023-03-06T03:32:47.826Z,9.80
2023-03-06T03:35:57.835Z,8.73
2023-03-06T03:39:00.783Z,7.47
2023-03-06T03:42:03.605Z,12.38
2023-03-06T03:45:06.634Z,10.87
2023-03-06T03:48:09.076Z,10.47
2023-03-06T03:51:13.272Z,10.73
2023-03-06T03:54:20.412Z,9.38
2023-03-06T03:57:24.892Z,11.35
2023-03-06T04:00:29.315Z,10.40
2023-03-06T04:03:42.137Z,15.13
2023-03-06T04:06:45.805Z,10.73
2023-03-06T04:09:48.397Z,12.18
2023-03-06T04:12:51.197Z,10.90
2023-03-06T04:15:55.023Z,9.90
2023-03-06T04:18:58.861Z,10.33
2023-03-06T04:22:02.411Z,10.30
2023-03-06T04:25:07.252Z,9.48
2023-03-06T04:28:11.667Z,11.45
2023-03-06T04:31:14.941Z,10.70
2023-03-06T04:34:18.554Z,12.57
2023-03-06T04:37:24.644Z,12.23
2023-03-06T04:40:29.766Z,10.70
2023-03-06T04:43:32.151Z,10.73
2023-03-06T04:46:35.232Z,8.30
2023-03-06T04:49:37.642Z,8.93
2023-03-06T04:52:42.743Z,9.68
2023-03-06T04:55:45.081Z,10.50
2023-03-06T04:58:47.697Z,10.27
2023-03-06T05:01:50.325Z,12.43
2023-03-06T05:04:52.595Z,11.53
2023-03-06T05:07:55.077Z,12.40
2023-03-06T05:10:59.757Z,12.80
2023-03-06T05:14:02.131Z,14.95
2023-03-06T05:17:04.482Z,10.87
2023-03-06T05:20:09.766Z,11.20
2023-03-06T05:23:12.656Z,13.82
2023-03-06T05:26:15.755Z,11.80
2023-03-06T05:29:18.016Z,13.38
2023-03-06T05:32:20.874Z,13.90
2023-03-06T05:35:23.852Z,13.40
2023-03-06T05:38:26.265Z,10.27
2023-03-06T05:41:28.603Z,12.05
2023-03-06T05:44:33.191Z,11.65
2023-03-06T05:47:36.169Z,12.53
2023-03-06T05:50:38.857Z,10.87
2023-03-06T05:53:41.310Z,13.85
2023-03-06T05:56:44.312Z,12.88
2023-03-06T05:59:47.294Z,12.60
2023-03-06T06:02:49.644Z,13.23
2023-03-06T06:05:52.038Z,16.20
2023-03-06T06:08:54.378Z,17.70
2023-03-06T06:12:01.186Z,12.15
2023-03-06T06:15:04.356Z,20.23
2023-03-06T06:18:06.720Z,12.83
2023-03-06T06:21:11.360Z,18.90
2023-03-06T06:33:26.780Z,16.80
2023-03-06T06:36:31.664Z,24.03
2023-03-06T06:39:35.350Z,18.33
2023-03-06T06:42:40.147Z,15.38
2023-03-06T06:45:44.581Z,18.73
2023-03-06T06:48:54.950Z,18.42
2023-03-06T06:52:09.888Z,19.53
2023-03-06T06:55:14.494Z,20.80
2023-03-06T06:58:17.856Z,24.02
2023-03-06T07:01:21.323Z,23.02
2023-03-06T07:04:27.315Z,18.10
2023-03-06T07:07:30.955Z,17.47
2023-03-06T07:10:33.419Z,14.27
2023-03-06T07:13:35.789Z,17.05
2023-03-06T07:17:19.368Z,14.23
2023-03-06T07:20:21.863Z,19.70
2023-03-06T07:23:26.542Z,16.50
2023-03-06T07:26:29.020Z,13.97
2023-03-06T07:29:33.002Z,14.43
2023-03-06T07:33:39.514Z,14.30
2023-03-06T07:36:43.242Z,17.67
2023-03-06T07:39:46.154Z,17.67
2023-03-06T07:42:48.450Z,15.27
2023-03-06T07:46:19.777Z,20.70
2023-03-06T07:49:22.111Z,17.63
2023-03-06T07:52:24.651Z,17.85
2023-03-06T07:55:26.960Z,15.07
2023-03-06T07:58:29.276Z,18.20
2023-03-06T08:01:31.874Z,16.15
2023-03-06T08:04:35.304Z,17.13
2023-03-06T08:07:37.986Z,20.30
2023-03-06T08:10:40.610Z,17.43
2023-03-06T08:13:43.401Z,21.57
2023-03-06T08:16:46.424Z,15.75
2023-03-06T08:19:48.828Z,16.70
2023-03-06T08:22:52.785Z,14.32
2023-03-06T08:25:57.236Z,16.20
2023-03-06T08:29:01.083Z,16.90
2023-03-06T08:32:05.018Z,17.50
2023-03-06T08:35:11.141Z,15.13
2023-03-06T08:38:16.865Z,11.18
2023-03-06T08:41:21.080Z,14.40
2023-03-06T08:44:24.350Z,14.30
2023-03-06T08:47:26.879Z,13.45
2023-03-06T08:50:29.220Z,17.85
2023-03-06T08:53:42.778Z,13.88
2023-03-06T08:56:46.205Z,14.30
2023-03-06T08:59:49.629Z,15.57
2023-03-06T09:02:52.044Z,18.05
2023-03-06T09:05:54.377Z,17.17
2023-03-06T09:08:56.887Z,18.55
2023-03-06T09:11:59.284Z,20.23
2023-03-06T09:15:04.457Z,22.10
2023-03-06T09:18:06.925Z,17.02
2023-03-06T09:21:09.532Z,16.80
2023-03-06T09:24:11.885Z,14.40
2023-03-06T09:27:14.190Z,14.30
2023-03-06T09:30:17.510Z,17.03
2023-03-06T09:33:20.581Z,14.07
2023-03-06T09:36:23.847Z,14.07
2023-03-06T09:39:26.600Z,16.63
2023-03-06T09:42:29.283Z,15.73
2023-03-06T09:45:33.661Z,16.17
2023-03-06T09:48:55.047Z,15.88
2023-03-06T09:52:01.141Z,19.60
2023-03-06T09:55:16.473Z,18.90
2023-03-06T09:58:25.303Z,10.83
2023-03-06T10:06:56.951Z,15.35
2023-03-06T10:10:05.407Z,20.58
2023-03-06T10:13:47.363Z,24.73
2023-03-06T10:16:49.976Z,16.63
2023-03-06T10:20:15.404Z,14.87
2023-03-06T10:23:43.911Z,15.38
2023-03-06T10:26:55.475Z,18.35
2023-03-06T10:30:04.363Z,12.98
2023-03-06T10:33:45.577Z,14.83
2023-03-06T10:36:48.481Z,13.73
2023-03-06T10:39:56.228Z,14.73
2023-03-06T10:43:10.855Z,13.68
2023-03-06T10:51:25.368Z,13.23
2023-03-06T10:54:29.976Z,16.50
2023-03-06T10:57:33.520Z,16.83
2023-03-06T11:01:08.691Z,15.10
2023-03-06T11:04:16.940Z,13.68
2023-03-06T11:07:31.839Z,15.13
2023-03-06T11:10:35.568Z,16.23
2023-03-06T11:13:40.067Z,14.93
2023-03-06T11:16:53.087Z,13.63
2023-03-06T11:20:14.975Z,15.02
2023-03-06T11:23:23.473Z,14.93
2023-03-06T11:26:37.020Z,19.07
2023-03-06T11:29:48.531Z,13.80
2023-03-06T11:33:27.346Z,13.75
2023-03-06T11:36:41.019Z,18.17
2023-03-06T11:40:10.132Z,12.60
2023-03-06T11:43:44.399Z,15.90
2023-03-06T11:47:07.404Z,14.65
2023-03-06T11:50:58.019Z,14.23
2023-03-06T11:54:03.783Z,14.82
2023-03-06T11:57:18.157Z,14.27
2023-03-06T12:00:56.923Z,14.40
2023-03-06T12:04:20.110Z,14.27
2023-03-06T12:07:31.381Z,13.63
2023-03-06T12:11:12.619Z,14.98
2023-03-06T12:14:21.157Z,13.70
2023-03-06T12:17:31.075Z,17.00
2023-03-06T12:20:45.688Z,13.57
2023-03-06T12:23:55.756Z,11.75
2023-03-06T12:27:19.357Z,12.68
2023-03-06T12:30:50.779Z,11.63
2023-03-06T12:33:59.065Z,16.53
2023-03-06T12:37:04.256Z,18.15
2023-03-06T12:40:12.759Z,24.25
2023-03-06T12:43:21.107Z,28.67
2023-03-06T12:46:28.216Z,17.07
2023-03-06T12:49:34.746Z,23.40
2023-03-06T12:56:39.778Z,21.63
2023-03-06T12:59:48.023Z,22.65
2023-03-06T13:03:16.383Z,12.83
2023-03-06T13:07:03.211Z,13.37
2023-03-06T13:10:27.796Z,15.50
2023-03-06T13:14:34.234Z,15.27
2023-03-06T13:28:48.782Z,15.70
2023-03-06T13:32:14.021Z,14.75
2023-03-06T13:35:56.243Z,14.00
2023-03-06T13:39:10.054Z,21.98
2023-03-06T13:42:28.885Z,14.53
2023-03-06T13:45:44.453Z,13.47
2023-03-06T13:48:46.782Z,14.05
2023-03-06T13:52:23.530Z,18.27
2023-03-06T13:55:59.795Z,12.80
2023-03-06T13:59:32.957Z,15.30
2023-03-06T14:02:58.591Z,18.87
2023-03-06T14:06:00.923Z,17.67
2023-03-06T14:09:12.144Z,14.15
2023-03-06T14:12:25.045Z,17.15
2023-03-06T14:15:42.433Z,18.20
2023-03-06T14:18:56.937Z,16.37
2023-03-06T14:22:00.345Z,17.42
2023-03-06T14:25:43.642Z,20.58
2023-03-06T14:28:57.170Z,24.65
2023-03-06T14:32:00.914Z,17.37
2023-03-06T14:35:03.735Z,14.00
2023-03-06T14:38:08.102Z,19.20
2023-03-06T14:41:12.391Z,18.48
2023-03-06T14:44:26.629Z,22.20
2023-03-06T14:47:36.318Z,17.43
2023-03-06T14:50:40.976Z,15.03
2023-03-06T14:53:48.168Z,17.15
2023-03-06T14:56:56.961Z,17.83
2023-03-06T15:00:01.721Z,16.95
2023-03-06T15:03:07.680Z,20.83
2023-03-06T15:06:17.944Z,18.13
2023-03-06T15:09:24.733Z,20.33
2023-03-06T15:12:27.308Z,18.02
2023-03-06T15:15:31.589Z,18.73
2023-03-06T15:18:56.678Z,15.60
2023-03-06T15:22:02.587Z,19.60
2023-03-06T15:25:20.194Z,20.30
2023-03-06T15:28:40.386Z,23.60
2023-03-06T15:32:35.895Z,17.85
2023-03-06T15:39:01.961Z,18.93
2023-03-06T15:42:25.046Z,21.77
2023-03-06T15:45:31.651Z,22.40
2023-03-06T15:48:35.473Z,23.75
2023-03-06T15:51:39.827Z,18.10
2023-03-06T15:54:42.164Z,14.63
2023-03-06T15:57:52.594Z,18.85
2023-03-06T16:00:54.942Z,20.92
2023-03-06T16:03:58.191Z,20.48
2023-03-06T16:07:00.644Z,21.00
2023-03-06T16:10:06.563Z,22.60
2023-03-06T16:13:17.446Z,20.75
2023-03-06T16:16:22.510Z,19.67
2023-03-06T16:19:27.332Z,19.70
2023-03-06T16:22:30.146Z,19.23
2023-03-06T16:25:34.569Z,19.97
2023-03-06T16:28:43.418Z,20.80
2023-03-06T16:31:46.071Z,20.08
2023-03-06T16:34:48.329Z,22.98
2023-03-06T16:37:50.795Z,20.40
2023-03-06T16:40:53.092Z,22.20
2023-03-06T16:43:55.594Z,23.88
2023-03-06T16:47:03.165Z,21.48
2023-03-06T16:50:05.924Z,24.33
2023-03-06T16:53:09.296Z,23.70
2023-03-06T16:56:13.688Z,20.03
2023-03-06T16:59:15.996Z,21.05
2023-03-06T17:02:18.336Z,23.00
2023-03-06T17:05:21.177Z,21.15
2023-03-06T17:08:24.632Z,22.17
2023-03-06T17:11:27.572Z,29.47
2023-03-06T17:14:30.605Z,26.48
2023-03-06T17:17:33.099Z,27.10
2023-03-06T17:20:35.673Z,24.25
2023-03-06T17:23:38.449Z,32.03
2023-03-06T17:26:40.764Z,27.87
2023-03-06T17:29:45.071Z,27.48
2023-03-06T17:32:47.401Z,27.10
2023-03-06T17:35:49.761Z,26.63
2023-03-06T17:38:55.185Z,28.33
2023-03-06T17:41:57.534Z,30.17
2023-03-06T17:45:00.095Z,37.70
2023-03-06T17:48:02.592Z,28.63
2023-03-06T17:51:05.562Z,30.83
2023-03-06T17:54:07.880Z,26.33
2023-03-06T17:57:10.203Z,23.90
2023-03-06T18:00:13.475Z,28.35
2023-03-06T18:03:17.791Z,26.75
2023-03-06T18:06:21.075Z,28.25
2023-03-06T18:09:23.798Z,32.00
2023-03-06T18:12:26.131Z,29.73
2023-03-06T18:15:28.450Z,37.50
2023-03-06T18:18:31.121Z,31.35
2023-03-06T18:21:33.498Z,29.00
2023-03-06T18:24:36.801Z,27.23
2023-03-06T18:27:39.251Z,27.57
2023-03-06T18:30:42.394Z,27.65
2023-03-06T18:33:45.385Z,26.60
2023-03-06T18:36:48.382Z,25.38
2023-03-06T18:39:50.686Z,23.97
2023-03-06T18:42:53.818Z,21.90
2023-03-06T18:45:57.160Z,23.23
2023-03-06T18:48:59.555Z,23.50
2023-03-06T18:52:01.821Z,24.42
2023-03-06T18:55:04.421Z,25.57
2023-03-06T18:58:07.202Z,27.87
2023-03-06T19:01:09.645Z,26.15
2023-03-06T19:04:12.231Z,20.88
2023-03-06T19:07:14.527Z,23.33
2023-03-06T19:10:19.269Z,20.83
2023-03-06T19:13:21.646Z,25.40
2023-03-06T19:16:28.824Z,30.23
2023-03-06T19:19:31.097Z,44.13
2023-03-06T19:22:37.235Z,37.47
2023-03-06T19:25:39.627Z,29.03
2023-03-06T19:28:43.180Z,22.77
2023-03-06T19:31:47.852Z,33.08
2023-03-06T19:34:50.308Z,21.88
2023-03-06T19:37:53.083Z,27.88
2023-03-06T19:40:55.452Z,29.27
2023-03-06T19:44:02.314Z,30.07
2023-03-06T19:47:04.698Z,30.48
2023-03-06T19:50:07.618Z,27.42
2023-03-06T19:53:11.172Z,27.77
2023-03-06T19:56:16.643Z,26.93
2023-03-06T19:59:19.422Z,29.03
2023-03-06T20:02:26.634Z,24.92
2023-03-06T20:05:28.988Z,24.77
2023-03-06T20:08:31.213Z,31.17
2023-03-06T20:11:33.865Z,40.73
2023-03-06T20:14:36.291Z,30.73
2023-03-06T20:17:40.611Z,33.58
2023-03-06T20:20:43.372Z,33.10
2023-03-06T20:23:45.707Z,27.35
2023-03-06T20:26:49.492Z,29.13
2023-03-06T20:29:52.032Z,30.73
2023-03-06T20:32:55.928Z,25.85
2023-03-06T20:35:58.195Z,31.25
2023-03-06T20:39:01.360Z,32.35
2023-03-06T20:42:04.414Z,28.27
2023-03-06T20:45:07.214Z,34.03
2023-03-06T20:48:09.537Z,31.17
2023-03-06T20:51:17.901Z,28.63
2023-03-06T20:54:20.180Z,27.50
2023-03-06T20:57:22.469Z,30.33
2023-03-06T21:00:24.821Z,25.33
2023-03-06T21:03:27.336Z,26.08
2023-03-06T21:06:29.701Z,30.42
2023-03-06T21:09:34.558Z,31.15
2023-03-06T21:12:36.926Z,32.40
2023-03-06T21:15:40.361Z,28.53
2023-03-06T21:18:43.324Z,27.20
2023-03-06T21:21:45.619Z,28.10
2023-03-06T21:24:47.894Z,29.77
2023-03-06T21:27:50.264Z,30.93
2023-03-06T21:30:52.566Z,52.97
2023-03-06T21:33:55.295Z,36.33
2023-03-06T21:36:57.580Z,48.42
2023-03-06T21:40:00.466Z,62.30
2023-03-06T21:43:03.494Z,50.50
2023-03-06T21:46:06.142Z,44.93
2023-03-06T21:49:08.545Z,37.78
2023-03-06T21:52:10.887Z,42.83
2023-03-06T21:55:13.202Z,34.25
2023-03-06T21:58:15.550Z,37.57
2023-03-06T22:01:21.826Z,39.10
2023-03-06T22:04:24.229Z,37.42
2023-03-06T22:07:27.304Z,42.13
2023-03-06T22:10:29.585Z,41.20
2023-03-06T22:13:31.871Z,34.67
2023-03-06T22:16:34.307Z,39.97
2023-03-06T22:19:36.715Z,36.22
2023-03-06T22:22:39.002Z,40.53
2023-03-06T22:25:41.323Z,39.25
2023-03-06T22:28:43.848Z,39.37
2023-03-06T22:31:46.380Z,32.87
2023-03-06T22:34:49.944Z,35.35
2023-03-06T22:37:52.303Z,45.33
2023-03-06T22:40:58.169Z,42.70
2023-03-06T22:44:01.398Z,40.57
2023-03-06T22:47:03.711Z,41.33
2023-03-06T22:50:06.982Z,47.28
2023-03-06T22:53:09.207Z,45.35
2023-03-06T22:56:13.733Z,33.70
2023-03-06T22:59:16.035Z,42.63
2023-03-06T23:02:18.839Z,37.77
2023-03-06T23:05:21.632Z,41.08
2023-03-06T23:08:24.163Z,35.67
2023-03-06T23:11:28.093Z,36.15
2023-03-06T23:14:51.177Z,34.77
2023-03-06T23:18:12.391Z,41.77
2023-03-06T23:21:34.591Z,31.33
2023-03-06T23:24:55.363Z,31.45
2023-03-06T23:27:57.675Z,30.55
2023-03-06T23:30:59.936Z,38.67
2023-03-06T23:34:02.925Z,39.37
2023-03-06T23:37:05.211Z,37.95
2023-03-06T23:40:09.376Z,34.55
2023-03-06T23:43:11.639Z,30.98
2023-03-06T23:46:14.610Z,33.73
2023-03-06T23:49:16.933Z,31.67
2023-03-06T23:52:19.192Z,36.63
2023-03-06T23:55:21.806Z,31.50
2023-03-06T23:58:24.059Z,30.98
